Meteo Giornale » Osservazioni meteo Stati Uniti (USA) » Grand Canyon National Park
ore: 02:54 - Osservazioni Meteo Grand Canyon National Park
Lat. 35° 56' N Lon. 112° 9' W Alt. 2014 metri s.l.m.
8 °C
Sereno
Temp. 24 Ore
8 °C
20 °C
Nord
0 Km/h
Dew point 8 °C
Umidità 100 %
Visibilità 10 Km
Il sole sorge alle ore 06:00
Il sole tramonta alle ore 18:56
| Data e Ora | Cielo e Fenomeni | T °C | DP °C | Um. % | Pres. hPa | Vis. km | Vento km/h | |
|---|---|---|---|---|---|---|---|---|
| Oggi h: 02:54 | Sereno | 8 | 8 | 100 | 1025 | 10 | N 0 | |
| Oggi h: 01:54 | Sereno | 9 | 8 | 93 | 1025 | 10 | N 0 | |
| Oggi h: 00:54 | Sereno | 9 | 9 | 100 | 1025 | 10 | N 0 | |
| Ieri h: 23:54 | Sereno | 11 | 10 | 93 | 1026 | 10 | N 0 | |
| Ieri h: 22:54 | Sereno | 11 | 11 | 100 | 1025 | 10 | N 0 | |
| Ieri h: 21:54 | Poco Nuvoloso | 12 | 11 | 93 | 1025 | 10 | N 5.5 | |
| Ieri h: 20:54 | Sereno | 13 | 11 | 87 | 1025 | 10 | N 0 | |
| Ieri h: 18:54 | Sereno | 18 | 12 | 67 | 1023 | 10 | S/SE 7.4 | |
| Ieri h: 17:54 | Sereno | 19 | 12 | 63 | 1024 | 10 | N 0 | |
| Ieri h: 16:54 | Sereno | 19 | 11 | 59 | 1024 | 10 | S/SE 13 | |
| Ieri h: 15:54 | Sereno | 18 | 11 | 63 | 1024 | 10 | N 0 | |
| Ieri h: 13:54 | Coperto | 14 | 9 | 71 | 1025 | 10 | E 14.8 | |
| Ieri h: 12:54 | Foschia | 13 | 11 | 87 | 1028 | 6 | N 5.5 | |
| Ieri h: 12:17 | Temporale nelle vicinanze Foschia | 13 | 11 | 87 | 1028 | 6 | N 0 | |
| Ieri h: 11:54 | Coperto | 14 | 11 | 82 | 1028 | 6 | N/NO 9.3 | |
| Ieri h: 11:30 | Temporale nelle vicinanze | 14 | 12 | 87 | 1027 | 8 | N 11.1 | |
| Ieri h: 10:54 | Coperto | 17 | 12 | 72 | 1027 | 10 | O/SO 16.7 | |
| Ieri h: 09:54 | Coperto | 20 | 9 | 49 | 1026 | 10 | E/SE 9.3 | |
| Ieri h: 08:54 | Sereno | 20 | 9 | 49 | 1025 | 10 | E/SE 18.5 | |
| Ieri h: 07:54 | Sereno | 18 | 11 | 63 | 1025 | 10 | E 7.4 | |
| Ieri h: 06:54 | Sereno | 13 | 11 | 87 | 1025 | 10 | N 0 | |
| Ieri h: 05:54 | Sereno | 11 | 11 | 100 | 1025 | 10 | N 0 | |
| Ieri h: 04:54 | Nuvoloso | 14 | 12 | 87 | 1024 | 10 | N/NE 11.1 | |
| Ieri h: 03:54 | Coperto | 14 | 13 | 93 | 1025 | 10 | N 5.5 | |
| Ieri h: 03:38 | Temporale Foschia | 15 | 13 | 87 | 1025 | 10 | N 5.5 | |



